<?xml version="1.0" encoding="UTF-8" standalone="no" ?>
<gpx xmlns="http://www.topografix.com/GPX/1/1" xmlns:xsi="http://www.w3.org/2001/XMLSchema-instance" xsi:schemaLocation="http://www.topografix.com/GPX/1/1 http://www.topografix.com/GPX/1/1/gpx.xsd" version="1.1" creator="VisuGPX - https://www.visugpx.com">
  <metadata>
    <name>Boucle de Lupiac</name>
    <desc><![CDATA[Sur les pas de d'Artagnan à Lupiac...
Départ Lupiac - Place du Foirail
Randonnée via coteaux, permettant de traverser les ruisseaux (de Clarac, Gélise, de Saint-Jaymes), la rivière Douze...]]></desc>
  </metadata>
  <trk>
    <name><![CDATA[Sur les pas de d'Artagnan à Lupiac]]></name>
    <trkseg>
      <trkpt lat="43.6821" lon="0.18318">
        <ele>244</ele>
        <time>2017-08-08T19:04:24+02:00</time>
      </trkpt>
      <trkpt lat="43.68239" lon="0.1838">
        <ele>243</ele>
        <time>2017-08-08T19:04:29+02:00</time>
      </trkpt>
      <trkpt lat="43.68244" lon="0.18442">
        <ele>242</ele>
        <time>2017-08-08T19:04:34+02:00</time>
      </trkpt>
      <trkpt lat="43.68237" lon="0.1856">
        <ele>241</ele>
        <time>2017-08-08T19:04:39+02:00</time>
      </trkpt>
      <trkpt lat="43.6823" lon="0.18646">
        <ele>240</ele>
        <time>2017-08-08T19:04:44+02:00</time>
      </trkpt>
      <trkpt lat="43.6824" lon="0.18771">
        <ele>239</ele>
        <time>2017-08-08T19:04:49+02:00</time>
      </trkpt>
      <trkpt lat="43.68263" lon="0.1885">
        <ele>240</ele>
        <time>2017-08-08T19:04:54+02:00</time>
      </trkpt>
      <trkpt lat="43.68304" lon="0.18908">
        <ele>237</ele>
        <time>2017-08-08T19:04:59+02:00</time>
      </trkpt>
      <trkpt lat="43.6847" lon="0.19171">
        <ele>230</ele>
        <time>2017-08-08T19:05:04+02:00</time>
      </trkpt>
      <trkpt lat="43.68558" lon="0.19171">
        <ele>230</ele>
        <time>2017-08-08T19:05:09+02:00</time>
      </trkpt>
      <trkpt lat="43.68711" lon="0.19197">
        <ele>226</ele>
        <time>2017-08-08T19:05:14+02:00</time>
      </trkpt>
      <trkpt lat="43.68933" lon="0.19258">
        <ele>226</ele>
        <time>2017-08-08T19:05:19+02:00</time>
      </trkpt>
      <trkpt lat="43.6899" lon="0.19291">
        <ele>224</ele>
        <time>2017-08-08T19:05:24+02:00</time>
      </trkpt>
      <trkpt lat="43.69071" lon="0.19401">
        <ele>221</ele>
        <time>2017-08-08T19:05:29+02:00</time>
      </trkpt>
      <trkpt lat="43.69097" lon="0.19418">
        <ele>221</ele>
        <time>2017-08-08T19:05:34+02:00</time>
      </trkpt>
      <trkpt lat="43.69283" lon="0.19415">
        <ele>225</ele>
        <time>2017-08-08T19:05:39+02:00</time>
      </trkpt>
      <trkpt lat="43.69284" lon="0.19545">
        <ele>214</ele>
        <time>2017-08-08T19:05:44+02:00</time>
      </trkpt>
      <trkpt lat="43.69293" lon="0.19592">
        <ele>210</ele>
        <time>2017-08-08T19:05:49+02:00</time>
      </trkpt>
      <trkpt lat="43.69293" lon="0.19621">
        <ele>208</ele>
        <time>2017-08-08T19:05:54+02:00</time>
      </trkpt>
      <trkpt lat="43.69267" lon="0.19755">
        <ele>209</ele>
        <time>2017-08-08T19:05:59+02:00</time>
      </trkpt>
      <trkpt lat="43.69185" lon="0.201">
        <ele>205</ele>
        <time>2017-08-08T19:06:04+02:00</time>
      </trkpt>
      <trkpt lat="43.69179" lon="0.2017">
        <ele>205</ele>
        <time>2017-08-08T19:06:09+02:00</time>
      </trkpt>
      <trkpt lat="43.69169" lon="0.20196">
        <ele>205</ele>
        <time>2017-08-08T19:06:14+02:00</time>
      </trkpt>
      <trkpt lat="43.69159" lon="0.20318">
        <ele>197</ele>
        <time>2017-08-08T19:06:19+02:00</time>
      </trkpt>
      <trkpt lat="43.69166" lon="0.20422">
        <ele>193</ele>
        <time>2017-08-08T19:06:24+02:00</time>
      </trkpt>
      <trkpt lat="43.69159" lon="0.2052">
        <ele>189</ele>
        <time>2017-08-08T19:06:29+02:00</time>
      </trkpt>
      <trkpt lat="43.69133" lon="0.20597">
        <ele>182</ele>
        <time>2017-08-08T19:06:34+02:00</time>
      </trkpt>
      <trkpt lat="43.691" lon="0.20649">
        <ele>179</ele>
        <time>2017-08-08T19:06:39+02:00</time>
      </trkpt>
      <trkpt lat="43.69069" lon="0.20683">
        <ele>176</ele>
        <time>2017-08-08T19:06:44+02:00</time>
      </trkpt>
      <trkpt lat="43.69067" lon="0.20695">
        <ele>175</ele>
        <time>2017-08-08T19:06:49+02:00</time>
      </trkpt>
      <trkpt lat="43.69074" lon="0.20712">
        <ele>174</ele>
        <time>2017-08-08T19:06:54+02:00</time>
      </trkpt>
      <trkpt lat="43.69125" lon="0.20719">
        <ele>171</ele>
        <time>2017-08-08T19:06:59+02:00</time>
      </trkpt>
      <trkpt lat="43.6916" lon="0.20707">
        <ele>171</ele>
        <time>2017-08-08T19:07:04+02:00</time>
      </trkpt>
      <trkpt lat="43.69172" lon="0.20707">
        <ele>171</ele>
        <time>2017-08-08T19:07:09+02:00</time>
      </trkpt>
      <trkpt lat="43.69197" lon="0.20755">
        <ele>167</ele>
        <time>2017-08-08T19:07:14+02:00</time>
      </trkpt>
      <trkpt lat="43.69216" lon="0.20782">
        <ele>167</ele>
        <time>2017-08-08T19:07:19+02:00</time>
      </trkpt>
      <trkpt lat="43.6928" lon="0.20766">
        <ele>170</ele>
        <time>2017-08-08T19:07:24+02:00</time>
      </trkpt>
      <trkpt lat="43.69311" lon="0.20778">
        <ele>172</ele>
        <time>2017-08-08T19:07:29+02:00</time>
      </trkpt>
      <trkpt lat="43.69321" lon="0.208">
        <ele>173</ele>
        <time>2017-08-08T19:07:34+02:00</time>
      </trkpt>
      <trkpt lat="43.69346" lon="0.20927">
        <ele>184</ele>
        <time>2017-08-08T19:07:39+02:00</time>
      </trkpt>
      <trkpt lat="43.69351" lon="0.20969">
        <ele>186</ele>
        <time>2017-08-08T19:07:44+02:00</time>
      </trkpt>
      <trkpt lat="43.69375" lon="0.20977">
        <ele>188</ele>
        <time>2017-08-08T19:07:49+02:00</time>
      </trkpt>
      <trkpt lat="43.69422" lon="0.21122">
        <ele>198</ele>
        <time>2017-08-08T19:07:54+02:00</time>
      </trkpt>
      <trkpt lat="43.69449" lon="0.2117">
        <ele>202</ele>
        <time>2017-08-08T19:07:59+02:00</time>
      </trkpt>
      <trkpt lat="43.69502" lon="0.21149">
        <ele>204</ele>
        <time>2017-08-08T19:08:04+02:00</time>
      </trkpt>
      <trkpt lat="43.69554" lon="0.2116">
        <ele>206</ele>
        <time>2017-08-08T19:08:09+02:00</time>
      </trkpt>
      <trkpt lat="43.69611" lon="0.21163">
        <ele>204</ele>
        <time>2017-08-08T19:08:14+02:00</time>
      </trkpt>
      <trkpt lat="43.69616" lon="0.2118">
        <ele>203</ele>
        <time>2017-08-08T19:08:19+02:00</time>
      </trkpt>
      <trkpt lat="43.6967" lon="0.21057">
        <ele>202</ele>
        <time>2017-08-08T19:08:24+02:00</time>
      </trkpt>
      <trkpt lat="43.69695" lon="0.21005">
        <ele>203</ele>
        <time>2017-08-08T19:08:29+02:00</time>
      </trkpt>
      <trkpt lat="43.69757" lon="0.20947">
        <ele>206</ele>
        <time>2017-08-08T19:08:34+02:00</time>
      </trkpt>
      <trkpt lat="43.69814" lon="0.20902">
        <ele>211</ele>
        <time>2017-08-08T19:08:39+02:00</time>
      </trkpt>
      <trkpt lat="43.69874" lon="0.20858">
        <ele>214</ele>
        <time>2017-08-08T19:08:44+02:00</time>
      </trkpt>
      <trkpt lat="43.69904" lon="0.20837">
        <ele>217</ele>
        <time>2017-08-08T19:08:49+02:00</time>
      </trkpt>
      <trkpt lat="43.69926" lon="0.20813">
        <ele>217</ele>
        <time>2017-08-08T19:08:54+02:00</time>
      </trkpt>
      <trkpt lat="43.69948" lon="0.20772">
        <ele>216</ele>
        <time>2017-08-08T19:08:59+02:00</time>
      </trkpt>
      <trkpt lat="43.69976" lon="0.20727">
        <ele>217</ele>
        <time>2017-08-08T19:09:04+02:00</time>
      </trkpt>
      <trkpt lat="43.69998" lon="0.20693">
        <ele>219</ele>
        <time>2017-08-08T19:09:09+02:00</time>
      </trkpt>
      <trkpt lat="43.70013" lon="0.20645">
        <ele>218</ele>
        <time>2017-08-08T19:09:14+02:00</time>
      </trkpt>
      <trkpt lat="43.7002" lon="0.2061">
        <ele>218</ele>
        <time>2017-08-08T19:09:19+02:00</time>
      </trkpt>
      <trkpt lat="43.7004" lon="0.20583">
        <ele>220</ele>
        <time>2017-08-08T19:09:24+02:00</time>
      </trkpt>
      <trkpt lat="43.7005" lon="0.20542">
        <ele>223</ele>
        <time>2017-08-08T19:09:29+02:00</time>
      </trkpt>
      <trkpt lat="43.70048" lon="0.205">
        <ele>223</ele>
        <time>2017-08-08T19:09:34+02:00</time>
      </trkpt>
      <trkpt lat="43.70045" lon="0.20466">
        <ele>223</ele>
        <time>2017-08-08T19:09:39+02:00</time>
      </trkpt>
      <trkpt lat="43.70023" lon="0.20434">
        <ele>224</ele>
        <time>2017-08-08T19:09:44+02:00</time>
      </trkpt>
      <trkpt lat="43.69991" lon="0.2028">
        <ele>224</ele>
        <time>2017-08-08T19:09:49+02:00</time>
      </trkpt>
      <trkpt lat="43.69976" lon="0.2017">
        <ele>227</ele>
        <time>2017-08-08T19:09:54+02:00</time>
      </trkpt>
      <trkpt lat="43.69976" lon="0.20094">
        <ele>226</ele>
        <time>2017-08-08T19:09:59+02:00</time>
      </trkpt>
      <trkpt lat="43.69991" lon="0.20012">
        <ele>226</ele>
        <time>2017-08-08T19:10:04+02:00</time>
      </trkpt>
      <trkpt lat="43.69993" lon="0.19937">
        <ele>227</ele>
        <time>2017-08-08T19:10:09+02:00</time>
      </trkpt>
      <trkpt lat="43.70006" lon="0.19861">
        <ele>229</ele>
        <time>2017-08-08T19:10:14+02:00</time>
      </trkpt>
      <trkpt lat="43.70011" lon="0.19816">
        <ele>229</ele>
        <time>2017-08-08T19:10:19+02:00</time>
      </trkpt>
      <trkpt lat="43.70011" lon="0.19744">
        <ele>231</ele>
        <time>2017-08-08T19:10:24+02:00</time>
      </trkpt>
      <trkpt lat="43.70006" lon="0.19676">
        <ele>234</ele>
        <time>2017-08-08T19:10:29+02:00</time>
      </trkpt>
      <trkpt lat="43.70023" lon="0.19604">
        <ele>234</ele>
        <time>2017-08-08T19:10:34+02:00</time>
      </trkpt>
      <trkpt lat="43.70048" lon="0.19521">
        <ele>235</ele>
        <time>2017-08-08T19:10:39+02:00</time>
      </trkpt>
      <trkpt lat="43.70068" lon="0.19464">
        <ele>236</ele>
        <time>2017-08-08T19:10:44+02:00</time>
      </trkpt>
      <trkpt lat="43.70127" lon="0.19367">
        <ele>232</ele>
        <time>2017-08-08T19:10:49+02:00</time>
      </trkpt>
      <trkpt lat="43.70202" lon="0.19275">
        <ele>228</ele>
        <time>2017-08-08T19:10:54+02:00</time>
      </trkpt>
      <trkpt lat="43.70271" lon="0.19203">
        <ele>228</ele>
        <time>2017-08-08T19:10:59+02:00</time>
      </trkpt>
      <trkpt lat="43.70309" lon="0.19148">
        <ele>229</ele>
        <time>2017-08-08T19:11:04+02:00</time>
      </trkpt>
      <trkpt lat="43.70331" lon="0.19127">
        <ele>231</ele>
        <time>2017-08-08T19:11:09+02:00</time>
      </trkpt>
      <trkpt lat="43.70361" lon="0.19113">
        <ele>232</ele>
        <time>2017-08-08T19:11:14+02:00</time>
      </trkpt>
      <trkpt lat="43.7039" lon="0.1911">
        <ele>233</ele>
        <time>2017-08-08T19:11:19+02:00</time>
      </trkpt>
      <trkpt lat="43.70435" lon="0.1912">
        <ele>232</ele>
        <time>2017-08-08T19:11:24+02:00</time>
      </trkpt>
      <trkpt lat="43.70462" lon="0.19136">
        <ele>231</ele>
        <time>2017-08-08T19:11:29+02:00</time>
      </trkpt>
      <trkpt lat="43.70507" lon="0.19149">
        <ele>230</ele>
        <time>2017-08-08T19:11:34+02:00</time>
      </trkpt>
      <trkpt lat="43.70559" lon="0.19167">
        <ele>227</ele>
        <time>2017-08-08T19:11:39+02:00</time>
      </trkpt>
      <trkpt lat="43.70644" lon="0.1918">
        <ele>227</ele>
        <time>2017-08-08T19:11:44+02:00</time>
      </trkpt>
      <trkpt lat="43.70644" lon="0.19349">
        <ele>228</ele>
        <time>2017-08-08T19:11:49+02:00</time>
      </trkpt>
      <trkpt lat="43.70636" lon="0.19428">
        <ele>225</ele>
        <time>2017-08-08T19:11:54+02:00</time>
      </trkpt>
      <trkpt lat="43.70678" lon="0.19503">
        <ele>224</ele>
        <time>2017-08-08T19:11:59+02:00</time>
      </trkpt>
      <trkpt lat="43.70751" lon="0.19596">
        <ele>213</ele>
        <time>2017-08-08T19:12:04+02:00</time>
      </trkpt>
      <trkpt lat="43.70805" lon="0.19658">
        <ele>208</ele>
        <time>2017-08-08T19:12:09+02:00</time>
      </trkpt>
      <trkpt lat="43.70856" lon="0.19713">
        <ele>203</ele>
        <time>2017-08-08T19:12:14+02:00</time>
      </trkpt>
      <trkpt lat="43.70913" lon="0.19771">
        <ele>196</ele>
        <time>2017-08-08T19:12:19+02:00</time>
      </trkpt>
      <trkpt lat="43.70945" lon="0.19798">
        <ele>194</ele>
        <time>2017-08-08T19:12:24+02:00</time>
      </trkpt>
      <trkpt lat="43.70984" lon="0.19848">
        <ele>191</ele>
        <time>2017-08-08T19:12:29+02:00</time>
      </trkpt>
      <trkpt lat="43.71016" lon="0.19869">
        <ele>191</ele>
        <time>2017-08-08T19:12:34+02:00</time>
      </trkpt>
      <trkpt lat="43.71079" lon="0.19908">
        <ele>189</ele>
        <time>2017-08-08T19:12:39+02:00</time>
      </trkpt>
      <trkpt lat="43.71129" lon="0.19936">
        <ele>188</ele>
        <time>2017-08-08T19:12:44+02:00</time>
      </trkpt>
      <trkpt lat="43.71149" lon="0.1997">
        <ele>187</ele>
        <time>2017-08-08T19:12:49+02:00</time>
      </trkpt>
      <trkpt lat="43.71173" lon="0.19977">
        <ele>187</ele>
        <time>2017-08-08T19:12:54+02:00</time>
      </trkpt>
      <trkpt lat="43.71196" lon="0.19994">
        <ele>187</ele>
        <time>2017-08-08T19:12:59+02:00</time>
      </trkpt>
      <trkpt lat="43.71228" lon="0.20011">
        <ele>187</ele>
        <time>2017-08-08T19:13:04+02:00</time>
      </trkpt>
      <trkpt lat="43.71258" lon="0.20028">
        <ele>187</ele>
        <time>2017-08-08T19:13:09+02:00</time>
      </trkpt>
      <trkpt lat="43.71295" lon="0.20039">
        <ele>187</ele>
        <time>2017-08-08T19:13:14+02:00</time>
      </trkpt>
      <trkpt lat="43.71332" lon="0.20028">
        <ele>186</ele>
        <time>2017-08-08T19:13:19+02:00</time>
      </trkpt>
      <trkpt lat="43.71372" lon="0.20018">
        <ele>186</ele>
        <time>2017-08-08T19:13:24+02:00</time>
      </trkpt>
      <trkpt lat="43.71389" lon="0.20011">
        <ele>186</ele>
        <time>2017-08-08T19:13:29+02:00</time>
      </trkpt>
      <trkpt lat="43.71394" lon="0.19949">
        <ele>186</ele>
        <time>2017-08-08T19:13:34+02:00</time>
      </trkpt>
      <trkpt lat="43.71392" lon="0.19888">
        <ele>187</ele>
        <time>2017-08-08T19:13:39+02:00</time>
      </trkpt>
      <trkpt lat="43.71409" lon="0.19819">
        <ele>192</ele>
        <time>2017-08-08T19:13:44+02:00</time>
      </trkpt>
      <trkpt lat="43.71427" lon="0.19764">
        <ele>197</ele>
        <time>2017-08-08T19:13:49+02:00</time>
      </trkpt>
      <trkpt lat="43.71441" lon="0.19723">
        <ele>199</ele>
        <time>2017-08-08T19:13:54+02:00</time>
      </trkpt>
      <trkpt lat="43.71451" lon="0.19661">
        <ele>200</ele>
        <time>2017-08-08T19:13:59+02:00</time>
      </trkpt>
      <trkpt lat="43.71461" lon="0.19627">
        <ele>200</ele>
        <time>2017-08-08T19:14:04+02:00</time>
      </trkpt>
      <trkpt lat="43.71441" lon="0.19513">
        <ele>204</ele>
        <time>2017-08-08T19:14:09+02:00</time>
      </trkpt>
      <trkpt lat="43.71441" lon="0.19465">
        <ele>206</ele>
        <time>2017-08-08T19:14:14+02:00</time>
      </trkpt>
      <trkpt lat="43.71428" lon="0.19392">
        <ele>208</ele>
        <time>2017-08-08T19:14:19+02:00</time>
      </trkpt>
      <trkpt lat="43.71428" lon="0.19316">
        <ele>209</ele>
        <time>2017-08-08T19:14:24+02:00</time>
      </trkpt>
      <trkpt lat="43.71415" lon="0.19289">
        <ele>210</ele>
        <time>2017-08-08T19:14:29+02:00</time>
      </trkpt>
      <trkpt lat="43.7142" lon="0.19192">
        <ele>213</ele>
        <time>2017-08-08T19:14:34+02:00</time>
      </trkpt>
      <trkpt lat="43.71427" lon="0.19084">
        <ele>217</ele>
        <time>2017-08-08T19:14:39+02:00</time>
      </trkpt>
      <trkpt lat="43.71482" lon="0.18858">
        <ele>223</ele>
        <time>2017-08-08T19:14:44+02:00</time>
      </trkpt>
      <trkpt lat="43.71497" lon="0.18775">
        <ele>223</ele>
        <time>2017-08-08T19:14:49+02:00</time>
      </trkpt>
      <trkpt lat="43.71467" lon="0.1861">
        <ele>223</ele>
        <time>2017-08-08T19:14:54+02:00</time>
      </trkpt>
      <trkpt lat="43.71469" lon="0.18535">
        <ele>224</ele>
        <time>2017-08-08T19:14:59+02:00</time>
      </trkpt>
      <trkpt lat="43.71459" lon="0.18466">
        <ele>226</ele>
        <time>2017-08-08T19:15:04+02:00</time>
      </trkpt>
      <trkpt lat="43.71482" lon="0.18398">
        <ele>225</ele>
        <time>2017-08-08T19:15:09+02:00</time>
      </trkpt>
      <trkpt lat="43.71383" lon="0.18477">
        <ele>230</ele>
        <time>2017-08-08T19:15:14+02:00</time>
      </trkpt>
      <trkpt lat="43.71298" lon="0.18503">
        <ele>229</ele>
        <time>2017-08-08T19:15:19+02:00</time>
      </trkpt>
      <trkpt lat="43.71177" lon="0.18544">
        <ele>221</ele>
        <time>2017-08-08T19:15:24+02:00</time>
      </trkpt>
      <trkpt lat="43.71088" lon="0.18555">
        <ele>220</ele>
        <time>2017-08-08T19:15:29+02:00</time>
      </trkpt>
      <trkpt lat="43.70964" lon="0.18541">
        <ele>224</ele>
        <time>2017-08-08T19:15:34+02:00</time>
      </trkpt>
      <trkpt lat="43.70895" lon="0.18507">
        <ele>225</ele>
        <time>2017-08-08T19:15:39+02:00</time>
      </trkpt>
      <trkpt lat="43.70793" lon="0.18479">
        <ele>228</ele>
        <time>2017-08-08T19:15:44+02:00</time>
      </trkpt>
      <trkpt lat="43.70734" lon="0.18465">
        <ele>231</ele>
        <time>2017-08-08T19:15:49+02:00</time>
      </trkpt>
      <trkpt lat="43.70714" lon="0.18453">
        <ele>232</ele>
        <time>2017-08-08T19:15:54+02:00</time>
      </trkpt>
      <trkpt lat="43.70694" lon="0.18457">
        <ele>231</ele>
        <time>2017-08-08T19:15:59+02:00</time>
      </trkpt>
      <trkpt lat="43.70675" lon="0.1846">
        <ele>232</ele>
        <time>2017-08-08T19:16:04+02:00</time>
      </trkpt>
      <trkpt lat="43.70664" lon="0.18431">
        <ele>230</ele>
        <time>2017-08-08T19:16:09+02:00</time>
      </trkpt>
      <trkpt lat="43.70642" lon="0.18397">
        <ele>227</ele>
        <time>2017-08-08T19:16:14+02:00</time>
      </trkpt>
      <trkpt lat="43.7061" lon="0.18369">
        <ele>225</ele>
        <time>2017-08-08T19:16:19+02:00</time>
      </trkpt>
      <trkpt lat="43.70592" lon="0.18345">
        <ele>224</ele>
        <time>2017-08-08T19:16:24+02:00</time>
      </trkpt>
      <trkpt lat="43.70573" lon="0.18294">
        <ele>219</ele>
        <time>2017-08-08T19:16:29+02:00</time>
      </trkpt>
      <trkpt lat="43.70576" lon="0.18244">
        <ele>215</ele>
        <time>2017-08-08T19:16:34+02:00</time>
      </trkpt>
      <trkpt lat="43.70564" lon="0.18208">
        <ele>210</ele>
        <time>2017-08-08T19:16:39+02:00</time>
      </trkpt>
      <trkpt lat="43.70553" lon="0.18172">
        <ele>206</ele>
        <time>2017-08-08T19:16:44+02:00</time>
      </trkpt>
      <trkpt lat="43.70525" lon="0.1812">
        <ele>198</ele>
        <time>2017-08-08T19:16:49+02:00</time>
      </trkpt>
      <trkpt lat="43.70497" lon="0.18096">
        <ele>193</ele>
        <time>2017-08-08T19:16:54+02:00</time>
      </trkpt>
      <trkpt lat="43.70467" lon="0.18074">
        <ele>188</ele>
        <time>2017-08-08T19:16:59+02:00</time>
      </trkpt>
      <trkpt lat="43.7044" lon="0.18053">
        <ele>185</ele>
        <time>2017-08-08T19:17:04+02:00</time>
      </trkpt>
      <trkpt lat="43.70464" lon="0.18009">
        <ele>185</ele>
        <time>2017-08-08T19:17:09+02:00</time>
      </trkpt>
      <trkpt lat="43.70481" lon="0.17973">
        <ele>184</ele>
        <time>2017-08-08T19:17:14+02:00</time>
      </trkpt>
      <trkpt lat="43.70507" lon="0.1794">
        <ele>184</ele>
        <time>2017-08-08T19:17:19+02:00</time>
      </trkpt>
      <trkpt lat="43.70517" lon="0.17911">
        <ele>183</ele>
        <time>2017-08-08T19:17:24+02:00</time>
      </trkpt>
      <trkpt lat="43.70477" lon="0.17871">
        <ele>182</ele>
        <time>2017-08-08T19:17:29+02:00</time>
      </trkpt>
      <trkpt lat="43.70458" lon="0.17826">
        <ele>183</ele>
        <time>2017-08-08T19:17:34+02:00</time>
      </trkpt>
      <trkpt lat="43.70416" lon="0.17648">
        <ele>190</ele>
        <time>2017-08-08T19:17:39+02:00</time>
      </trkpt>
      <trkpt lat="43.70587" lon="0.17617">
        <ele>189</ele>
        <time>2017-08-08T19:17:44+02:00</time>
      </trkpt>
      <trkpt lat="43.70617" lon="0.17576">
        <ele>189</ele>
        <time>2017-08-08T19:17:49+02:00</time>
      </trkpt>
      <trkpt lat="43.70671" lon="0.17501">
        <ele>186</ele>
        <time>2017-08-08T19:17:54+02:00</time>
      </trkpt>
      <trkpt lat="43.70701" lon="0.17463">
        <ele>185</ele>
        <time>2017-08-08T19:17:59+02:00</time>
      </trkpt>
      <trkpt lat="43.70681" lon="0.17443">
        <ele>190</ele>
        <time>2017-08-08T19:18:04+02:00</time>
      </trkpt>
      <trkpt lat="43.70661" lon="0.17378">
        <ele>197</ele>
        <time>2017-08-08T19:18:09+02:00</time>
      </trkpt>
      <trkpt lat="43.70622" lon="0.17371">
        <ele>198</ele>
        <time>2017-08-08T19:18:14+02:00</time>
      </trkpt>
      <trkpt lat="43.70565" lon="0.17391">
        <ele>199</ele>
        <time>2017-08-08T19:18:19+02:00</time>
      </trkpt>
      <trkpt lat="43.70483" lon="0.17378">
        <ele>202</ele>
        <time>2017-08-08T19:18:24+02:00</time>
      </trkpt>
      <trkpt lat="43.70402" lon="0.17353">
        <ele>205</ele>
        <time>2017-08-08T19:18:29+02:00</time>
      </trkpt>
      <trkpt lat="43.70362" lon="0.17309">
        <ele>209</ele>
        <time>2017-08-08T19:18:34+02:00</time>
      </trkpt>
      <trkpt lat="43.70332" lon="0.17254">
        <ele>213</ele>
        <time>2017-08-08T19:18:39+02:00</time>
      </trkpt>
      <trkpt lat="43.70318" lon="0.17199">
        <ele>215</ele>
        <time>2017-08-08T19:18:44+02:00</time>
      </trkpt>
      <trkpt lat="43.70293" lon="0.17178">
        <ele>217</ele>
        <time>2017-08-08T19:18:49+02:00</time>
      </trkpt>
      <trkpt lat="43.7028" lon="0.17154">
        <ele>219</ele>
        <time>2017-08-08T19:18:54+02:00</time>
      </trkpt>
      <trkpt lat="43.70262" lon="0.17086">
        <ele>219</ele>
        <time>2017-08-08T19:18:59+02:00</time>
      </trkpt>
      <trkpt lat="43.7021" lon="0.17051">
        <ele>219</ele>
        <time>2017-08-08T19:19:04+02:00</time>
      </trkpt>
      <trkpt lat="43.70195" lon="0.17014">
        <ele>217</ele>
        <time>2017-08-08T19:19:09+02:00</time>
      </trkpt>
      <trkpt lat="43.70195" lon="0.16962">
        <ele>212</ele>
        <time>2017-08-08T19:19:14+02:00</time>
      </trkpt>
      <trkpt lat="43.70197" lon="0.16876">
        <ele>201</ele>
        <time>2017-08-08T19:19:19+02:00</time>
      </trkpt>
      <trkpt lat="43.70197" lon="0.16804">
        <ele>193</ele>
        <time>2017-08-08T19:19:24+02:00</time>
      </trkpt>
      <trkpt lat="43.70175" lon="0.16756">
        <ele>189</ele>
        <time>2017-08-08T19:19:29+02:00</time>
      </trkpt>
      <trkpt lat="43.70177" lon="0.16711">
        <ele>191</ele>
        <time>2017-08-08T19:19:34+02:00</time>
      </trkpt>
      <trkpt lat="43.7016" lon="0.16674">
        <ele>192</ele>
        <time>2017-08-08T19:19:39+02:00</time>
      </trkpt>
      <trkpt lat="43.70128" lon="0.16608">
        <ele>197</ele>
        <time>2017-08-08T19:19:44+02:00</time>
      </trkpt>
      <trkpt lat="43.70073" lon="0.16581">
        <ele>201</ele>
        <time>2017-08-08T19:19:49+02:00</time>
      </trkpt>
      <trkpt lat="43.70031" lon="0.16578">
        <ele>204</ele>
        <time>2017-08-08T19:19:54+02:00</time>
      </trkpt>
      <trkpt lat="43.69964" lon="0.16505">
        <ele>209</ele>
        <time>2017-08-08T19:19:59+02:00</time>
      </trkpt>
      <trkpt lat="43.69939" lon="0.16454">
        <ele>211</ele>
        <time>2017-08-08T19:20:04+02:00</time>
      </trkpt>
      <trkpt lat="43.69904" lon="0.16406">
        <ele>213</ele>
        <time>2017-08-08T19:20:09+02:00</time>
      </trkpt>
      <trkpt lat="43.69879" lon="0.16286">
        <ele>211</ele>
        <time>2017-08-08T19:20:14+02:00</time>
      </trkpt>
      <trkpt lat="43.69866" lon="0.16288">
        <ele>211</ele>
        <time>2017-08-08T19:20:19+02:00</time>
      </trkpt>
      <trkpt lat="43.69819" lon="0.1622">
        <ele>207</ele>
        <time>2017-08-08T19:20:24+02:00</time>
      </trkpt>
      <trkpt lat="43.6977" lon="0.16151">
        <ele>203</ele>
        <time>2017-08-08T19:20:29+02:00</time>
      </trkpt>
      <trkpt lat="43.6973" lon="0.16117">
        <ele>200</ele>
        <time>2017-08-08T19:20:34+02:00</time>
      </trkpt>
      <trkpt lat="43.69725" lon="0.16045">
        <ele>193</ele>
        <time>2017-08-08T19:20:39+02:00</time>
      </trkpt>
      <trkpt lat="43.69725" lon="0.15993">
        <ele>189</ele>
        <time>2017-08-08T19:20:44+02:00</time>
      </trkpt>
      <trkpt lat="43.69673" lon="0.15821">
        <ele>180</ele>
        <time>2017-08-08T19:20:49+02:00</time>
      </trkpt>
      <trkpt lat="43.69665" lon="0.15801">
        <ele>179</ele>
        <time>2017-08-08T19:20:54+02:00</time>
      </trkpt>
      <trkpt lat="43.69705" lon="0.15427">
        <ele>155</ele>
        <time>2017-08-08T19:20:59+02:00</time>
      </trkpt>
      <trkpt lat="43.69693" lon="0.15372">
        <ele>153</ele>
        <time>2017-08-08T19:21:04+02:00</time>
      </trkpt>
      <trkpt lat="43.69628" lon="0.1532">
        <ele>154</ele>
        <time>2017-08-08T19:21:09+02:00</time>
      </trkpt>
      <trkpt lat="43.69611" lon="0.15249">
        <ele>152</ele>
        <time>2017-08-08T19:21:14+02:00</time>
      </trkpt>
      <trkpt lat="43.69614" lon="0.15184">
        <ele>150</ele>
        <time>2017-08-08T19:21:19+02:00</time>
      </trkpt>
      <trkpt lat="43.69552" lon="0.15053">
        <ele>149</ele>
        <time>2017-08-08T19:21:24+02:00</time>
      </trkpt>
      <trkpt lat="43.69528" lon="0.15039">
        <ele>149</ele>
        <time>2017-08-08T19:21:29+02:00</time>
      </trkpt>
      <trkpt lat="43.69469" lon="0.15021">
        <ele>148</ele>
        <time>2017-08-08T19:21:34+02:00</time>
      </trkpt>
      <trkpt lat="43.69228" lon="0.14726">
        <ele>150</ele>
        <time>2017-08-08T19:21:39+02:00</time>
      </trkpt>
      <trkpt lat="43.69029" lon="0.14482">
        <ele>161</ele>
        <time>2017-08-08T19:21:44+02:00</time>
      </trkpt>
      <trkpt lat="43.68976" lon="0.145">
        <ele>164</ele>
        <time>2017-08-08T19:21:49+02:00</time>
      </trkpt>
      <trkpt lat="43.68909" lon="0.14421">
        <ele>172</ele>
        <time>2017-08-08T19:21:54+02:00</time>
      </trkpt>
      <trkpt lat="43.68857" lon="0.14417">
        <ele>177</ele>
        <time>2017-08-08T19:21:59+02:00</time>
      </trkpt>
      <trkpt lat="43.6879" lon="0.14441">
        <ele>179</ele>
        <time>2017-08-08T19:22:04+02:00</time>
      </trkpt>
      <trkpt lat="43.68764" lon="0.14415">
        <ele>182</ele>
        <time>2017-08-08T19:22:09+02:00</time>
      </trkpt>
      <trkpt lat="43.68717" lon="0.14374">
        <ele>185</ele>
        <time>2017-08-08T19:22:14+02:00</time>
      </trkpt>
      <trkpt lat="43.68667" lon="0.14347">
        <ele>187</ele>
        <time>2017-08-08T19:22:19+02:00</time>
      </trkpt>
      <trkpt lat="43.68612" lon="0.1435">
        <ele>190</ele>
        <time>2017-08-08T19:22:24+02:00</time>
      </trkpt>
      <trkpt lat="43.68548" lon="0.14361">
        <ele>190</ele>
        <time>2017-08-08T19:22:29+02:00</time>
      </trkpt>
      <trkpt lat="43.68535" lon="0.14364">
        <ele>189</ele>
        <time>2017-08-08T19:22:34+02:00</time>
      </trkpt>
      <trkpt lat="43.6855" lon="0.14474">
        <ele>188</ele>
        <time>2017-08-08T19:22:39+02:00</time>
      </trkpt>
      <trkpt lat="43.68545" lon="0.1456">
        <ele>184</ele>
        <time>2017-08-08T19:22:44+02:00</time>
      </trkpt>
      <trkpt lat="43.6852" lon="0.14608">
        <ele>181</ele>
        <time>2017-08-08T19:22:49+02:00</time>
      </trkpt>
      <trkpt lat="43.68461" lon="0.14737">
        <ele>173</ele>
        <time>2017-08-08T19:22:54+02:00</time>
      </trkpt>
      <trkpt lat="43.68474" lon="0.14906">
        <ele>163</ele>
        <time>2017-08-08T19:22:59+02:00</time>
      </trkpt>
      <trkpt lat="43.68509" lon="0.15084">
        <ele>156</ele>
        <time>2017-08-08T19:23:04+02:00</time>
      </trkpt>
      <trkpt lat="43.68486" lon="0.15167">
        <ele>153</ele>
        <time>2017-08-08T19:23:09+02:00</time>
      </trkpt>
      <trkpt lat="43.68365" lon="0.15561">
        <ele>155</ele>
        <time>2017-08-08T19:23:14+02:00</time>
      </trkpt>
      <trkpt lat="43.68173" lon="0.15853">
        <ele>158</ele>
        <time>2017-08-08T19:23:19+02:00</time>
      </trkpt>
      <trkpt lat="43.68414" lon="0.16224">
        <ele>154</ele>
        <time>2017-08-08T19:23:24+02:00</time>
      </trkpt>
      <trkpt lat="43.68422" lon="0.16358">
        <ele>159</ele>
        <time>2017-08-08T19:23:29+02:00</time>
      </trkpt>
      <trkpt lat="43.68456" lon="0.16464">
        <ele>172</ele>
        <time>2017-08-08T19:23:34+02:00</time>
      </trkpt>
      <trkpt lat="43.6845" lon="0.16513">
        <ele>178</ele>
        <time>2017-08-08T19:23:39+02:00</time>
      </trkpt>
      <trkpt lat="43.68422" lon="0.16575">
        <ele>185</ele>
        <time>2017-08-08T19:23:44+02:00</time>
      </trkpt>
      <trkpt lat="43.68452" lon="0.17389">
        <ele>223</ele>
        <time>2017-08-08T19:23:49+02:00</time>
      </trkpt>
      <trkpt lat="43.68296" lon="0.17629">
        <ele>231</ele>
        <time>2017-08-08T19:23:54+02:00</time>
      </trkpt>
      <trkpt lat="43.6823" lon="0.17902">
        <ele>241</ele>
        <time>2017-08-08T19:23:59+02:00</time>
      </trkpt>
      <trkpt lat="43.68215" lon="0.17966">
        <ele>244</ele>
        <time>2017-08-08T19:24:04+02:00</time>
      </trkpt>
      <trkpt lat="43.68206" lon="0.18019">
        <ele>246</ele>
        <time>2017-08-08T19:24:09+02:00</time>
      </trkpt>
      <trkpt lat="43.68204" lon="0.18084">
        <ele>249</ele>
        <time>2017-08-08T19:24:14+02:00</time>
      </trkpt>
      <trkpt lat="43.68203" lon="0.18126">
        <ele>250</ele>
        <time>2017-08-08T19:24:19+02:00</time>
      </trkpt>
      <trkpt lat="43.682" lon="0.18146">
        <ele>250</ele>
        <time>2017-08-08T19:24:24+02:00</time>
      </trkpt>
      <trkpt lat="43.68197" lon="0.18163">
        <ele>250</ele>
        <time>2017-08-08T19:24:29+02:00</time>
      </trkpt>
      <trkpt lat="43.68193" lon="0.18208">
        <ele>249</ele>
        <time>2017-08-08T19:24:34+02:00</time>
      </trkpt>
      <trkpt lat="43.68182" lon="0.18284">
        <ele>245</ele>
        <time>2017-08-08T19:24:39+02:00</time>
      </trkpt>
      <trkpt lat="43.68209" lon="0.18326">
        <ele>243</ele>
        <time>2017-08-08T19:24:44+02:00</time>
      </trkpt>
    </trkseg>
  </trk>
</gpx>